Alpharetta, Georgia
Current Conditions -  °F | °C
As of 1:53 PM on Tuesday 21 Oct 2014 (Local Time) from KPDK Reporting Station
Clear Clear  
Wind Chill: 22°   Ceiling: Unl
Heat Index: 22°   Visibility: 10mi
Dew Point: 11°   Wind: 14mph
Humidity: 49%   Direction: 300°WNW
Pressure: 29.99"   Gusts: 22mph
Location:  34.08°N, 84.29°W
Report Text: KPDK 211753Z 30012G19KT 10SM CLR 22/11 A2999 RMK AO2 SLP148 T02220111 10228 20094 58017
Loading
Personal Weather Stations






























Interactive Weather Map
Tropical Storm Tracking
New forecast layout! Learn more

10-Day Weather Forecast

Advertisements
Track Severe Weather on mobile